Time;durP1;ratioP1;P1;durP2;ratioP2;P2;SDS_P1;SDS_P2;PMS_P1;PMS_P2;Temp;Humidity;BMP_temperature;BMP_pressure;BME280_temperature;BME280_humidity;BME280_pressure;Samples;Min_cycle;Max_cycle;Signal;HPM_P1;HPM_P2
2024/02/04 00:01:55;;;;;;;1.50;1.40;;;;;;;6.07;100.00;98480.59;5042687;28;20406;-83
2024/02/04 00:04:23;;;;;;;1.40;1.30;;;;;;;6.09;100.00;98475.94;5043600;28;20399;-83
2024/02/04 00:06:49;;;;;;;1.40;1.30;;;;;;;6.06;100.00;98463.19;5044768;28;20391;-83
2024/02/04 00:09:15;;;;;;;2.33;1.40;;;;;;;6.05;100.00;98468.66;5041277;28;20407;-83
2024/02/04 00:11:42;;;;;;;1.42;1.33;;;;;;;6.09;100.00;98464.63;5042249;28;20415;-83
2024/02/04 00:14:09;;;;;;;1.50;1.40;;;;;;;6.07;100.00;98459.56;5041602;28;20404;-83
2024/02/04 00:16:35;;;;;;;1.30;1.20;;;;;;;6.05;100.00;98439.72;5043918;28;20406;-83
2024/02/04 00:19:02;;;;;;;1.45;1.35;;;;;;;5.97;100.00;98440.72;5043344;28;20395;-83
2024/02/04 00:21:28;;;;;;;1.33;1.30;;;;;;;5.99;100.00;98430.81;5042047;28;20681;-82
2024/02/04 00:23:54;;;;;;;1.52;1.40;;;;;;;5.89;100.00;98413.78;5041740;28;20467;-83
2024/02/04 00:26:20;;;;;;;1.60;1.50;;;;;;;5.91;100.00;98409.16;5040846;28;20438;-83
2024/02/04 00:28:47;;;;;;;1.40;1.30;;;;;;;5.91;100.00;98396.00;5041372;28;20395;-83
2024/02/04 00:31:14;;;;;;;1.60;1.50;;;;;;;5.82;100.00;98390.91;5039485;28;20404;-83
2024/02/04 00:33:40;;;;;;;1.50;1.40;;;;;;;5.78;100.00;98396.75;5039232;28;20517;-83
2024/02/04 00:36:07;;;;;;;1.63;1.50;;;;;;;5.77;100.00;98403.81;5039545;28;20395;-82
2024/02/04 00:38:33;;;;;;;1.50;1.40;;;;;;;5.72;100.00;98408.81;5041209;28;20410;-83
2024/02/04 00:40:59;;;;;;;1.77;1.45;;;;;;;5.69;100.00;98403.16;5040862;28;20399;-83
2024/02/04 00:43:25;;;;;;;2.00;1.38;;;;;;;5.63;100.00;98396.06;5041423;28;20407;-83
2024/02/04 00:45:52;;;;;;;1.60;1.50;;;;;;;5.61;100.00;98412.00;5040978;28;20407;-83
2024/02/04 00:48:19;;;;;;;1.50;1.40;;;;;;;5.56;100.00;98411.78;5040871;28;20399;-82
2024/02/04 00:50:45;;;;;;;1.33;1.23;;;;;;;5.55;100.00;98418.03;5040797;28;20407;-83
2024/02/04 00:53:11;;;;;;;1.20;1.10;;;;;;;5.52;100.00;98414.97;5040832;28;20411;-82
2024/02/04 00:55:37;;;;;;;1.60;1.50;;;;;;;5.47;100.00;98415.56;5042833;28;20967;-83
2024/02/04 00:58:04;;;;;;;1.40;1.30;;;;;;;5.40;100.00;98426.03;5039883;28;20896;-82
2024/02/04 01:00:31;;;;;;;1.50;1.40;;;;;;;5.40;100.00;98444.41;5040069;28;20411;-83
2024/02/04 01:02:57;;;;;;;1.40;1.30;;;;;;;5.44;100.00;98434.31;5040890;28;20399;-81
2024/02/04 01:05:25;;;;;;;1.48;1.38;;;;;;;5.44;100.00;98422.00;5038884;28;20404;-82
2024/02/04 01:07:51;;;;;;;1.40;1.30;;;;;;;5.49;100.00;98420.63;5039890;28;20517;-83
2024/02/04 01:10:17;;;;;;;1.40;1.30;;;;;;;5.51;100.00;98426.50;5039106;28;20391;-82
2024/02/04 01:12:43;;;;;;;1.60;1.50;;;;;;;5.50;100.00;98425.69;5038069;28;20756;-82
2024/02/04 01:15:10;;;;;;;1.40;1.30;;;;;;;5.51;100.00;98431.75;5038015;28;20407;-82
2024/02/04 01:17:36;;;;;;;1.40;1.30;;;;;;;5.53;100.00;98433.19;5038051;28;20437;-82
2024/02/04 01:20:03;;;;;;;1.40;1.30;;;;;;;5.50;100.00;98430.94;5040266;28;20769;-83
2024/02/04 01:22:30;;;;;;;1.55;1.33;;;;;;;5.48;100.00;98429.53;5041075;28;20414;-82
2024/02/04 01:24:56;;;;;;;2.35;1.30;;;;;;;5.46;100.00;98406.06;5041337;28;20403;-84
2024/02/04 01:27:23;;;;;;;1.13;1.13;;;;;;;5.44;100.00;98406.25;5041007;28;20468;-83
2024/02/04 01:29:49;;;;;;;1.40;1.30;;;;;;;5.41;100.00;98401.38;5042889;28;20441;-83
2024/02/04 01:32:16;;;;;;;1.52;1.42;;;;;;;5.34;100.00;98400.53;5038201;28;20415;-83
2024/02/04 01:34:42;;;;;;;1.40;1.30;;;;;;;5.29;100.00;98408.19;5038737;28;20402;-82
2024/02/04 01:37:08;;;;;;;1.42;1.33;;;;;;;5.21;100.00;98403.06;5042808;28;20406;-82
2024/02/04 01:39:35;;;;;;;1.42;1.33;;;;;;;5.17;100.00;98401.03;5045777;28;20438;-81
2024/02/04 01:42:02;;;;;;;1.40;1.30;;;;;;;5.15;100.00;98400.41;5037955;28;20434;-81
2024/02/04 01:44:28;;;;;;;1.40;1.30;;;;;;;5.11;100.00;98404.44;5041175;28;20402;-82
2024/02/04 01:46:54;;;;;;;1.50;1.40;;;;;;;5.05;100.00;98405.97;5041576;28;20411;-83
2024/02/04 01:49:20;;;;;;;2.07;1.40;;;;;;;5.07;100.00;98411.88;5041448;28;20535;-82
2024/02/04 01:51:47;;;;;;;1.25;1.20;;;;;;;5.08;100.00;98416.13;5041304;28;20395;-83
2024/02/04 01:54:13;;;;;;;1.50;1.40;;;;;;;5.11;100.00;98414.94;5041125;28;20432;-82
2024/02/04 01:56:41;;;;;;;1.30;1.20;;;;;;;5.17;100.00;98408.91;5041254;28;20423;-83
2024/02/04 01:59:09;;;;;;;1.40;1.30;;;;;;;5.20;100.00;98404.06;5041556;28;20396;-82
2024/02/04 02:01:35;;;;;;;1.38;1.30;;;;;;;5.26;100.00;98415.66;5041751;28;20407;-82
2024/02/04 02:04:02;;;;;;;1.30;1.20;;;;;;;5.30;100.00;98420.31;5041884;28;20867;-83
2024/02/04 02:06:28;;;;;;;1.20;1.20;;;;;;;5.35;100.00;98420.53;5041163;28;20395;-82
2024/02/04 02:08:58;;;;;;;1.10;1.10;;;;;;;5.39;100.00;98421.78;5041569;28;20403;-82
2024/02/04 02:11:33;;;;;;;1.40;1.30;;;;;;;5.43;100.00;98407.25;5041763;28;20403;-82
2024/02/04 02:14:03;;;;;;;1.20;1.10;;;;;;;5.44;100.00;98403.63;5041951;28;20872;-83
2024/02/04 02:16:32;;;;;;;1.20;1.20;;;;;;;5.44;100.00;98398.38;5041512;28;20480;-82
2024/02/04 02:19:07;;;;;;;1.30;1.20;;;;;;;5.53;100.00;98404.28;5042120;28;20457;-83
2024/02/04 02:21:44;;;;;;;1.10;1.10;;;;;;;5.53;100.00;98404.28;5041848;28;20436;-81
2024/02/04 02:24:15;;;;;;;1.10;1.10;;;;;;;5.51;100.00;98398.41;5042266;28;20455;-83
2024/02/04 02:26:44;;;;;;;1.35;1.27;;;;;;;5.48;100.00;98405.88;5041967;28;20445;-82
2024/02/04 02:29:10;;;;;;;1.40;1.30;;;;;;;5.41;100.00;98401.38;5042597;28;20789;-83
2024/02/04 02:31:37;;;;;;;1.70;1.13;;;;;;;5.37;100.00;98415.09;5043500;28;20440;-83
2024/02/04 02:34:04;;;;;;;1.40;1.30;;;;;;;5.30;100.00;98411.63;5042574;28;20398;-83
2024/02/04 02:36:36;;;;;;;1.15;1.15;;;;;;;5.33;100.00;98396.31;5042976;28;20407;-83
2024/02/04 02:39:13;;;;;;;1.48;1.30;;;;;;;5.35;100.00;98401.34;5043497;28;20422;-83
2024/02/04 02:41:43;;;;;;;1.40;1.30;;;;;;;5.37;100.00;98400.16;5043799;28;20407;-83
2024/02/04 02:44:11;;;;;;;1.27;1.20;;;;;;;5.43;100.00;98402.00;5045827;28;20853;-83
2024/02/04 02:46:38;;;;;;;2.00;1.15;;;;;;;5.44;100.00;98403.63;5042440;28;20402;-83
2024/02/04 02:49:05;;;;;;;1.20;1.10;;;;;;;5.50;100.00;98403.84;5043777;28;20748;-83
2024/02/04 02:51:31;;;;;;;1.30;1.20;;;;;;;5.50;100.00;98412.53;5043940;28;20399;-83
2024/02/04 02:53:57;;;;;;;1.50;1.40;;;;;;;5.49;100.00;98405.66;5043261;28;20426;-83
2024/02/04 02:56:23;;;;;;;1.17;1.17;;;;;;;5.52;100.00;98407.91;5040427;28;20553;-83
2024/02/04 02:58:50;;;;;;;1.10;1.10;;;;;;;5.54;100.00;98412.97;5040791;28;20450;-82
2024/02/04 03:01:16;;;;;;;1.10;1.10;;;;;;;5.54;100.00;98416.41;5040360;28;20473;-83
2024/02/04 03:03:43;;;;;;;1.10;1.10;;;;;;;5.54;100.00;98411.16;5040541;28;20439;-83
2024/02/04 03:06:09;;;;;;;1.10;1.10;;;;;;;5.55;100.00;98404.91;5039931;28;20399;-82
2024/02/04 03:08:35;;;;;;;1.45;1.20;;;;;;;5.51;100.00;98398.41;5040807;28;20498;-82
2024/02/04 03:11:02;;;;;;;1.10;1.10;;;;;;;5.53;100.00;98393.78;5040498;28;20465;-83
2024/02/04 03:13:28;;;;;;;1.13;1.13;;;;;;;5.54;100.00;98391.97;5040425;28;20422;-84
2024/02/04 03:15:55;;;;;;;1.50;1.10;;;;;;;5.51;100.00;98377.41;5040366;28;20448;-83
2024/02/04 03:18:21;;;;;;;1.25;1.20;;;;;;;5.57;100.00;98373.19;5040882;28;20406;-82
2024/02/04 03:20:47;;;;;;;1.10;1.10;;;;;;;5.58;100.00;98375.63;5040781;28;20498;-83
2024/02/04 03:23:14;;;;;;;1.20;1.20;;;;;;;5.62;100.00;98384.75;5041003;28;20431;-82
2024/02/04 03:25:40;;;;;;;1.20;1.10;;;;;;;5.58;100.00;98367.75;5040008;28;20395;-83
2024/02/04 03:28:06;;;;;;;1.10;1.10;;;;;;;5.66;100.00;98377.28;5041444;28;20419;-83
2024/02/04 03:30:32;;;;;;;1.10;1.10;;;;;;;5.72;100.00;98377.31;5040577;28;20414;-81
2024/02/04 03:32:59;;;;;;;1.20;1.20;;;;;;;5.75;100.00;98378.75;5041568;28;20421;-81
2024/02/04 03:35:26;;;;;;;1.10;1.10;;;;;;;5.75;100.00;98373.47;5041852;28;20403;-81
2024/02/04 03:37:52;;;;;;;1.10;1.10;;;;;;;5.73;100.00;98368.41;5042683;28;20510;-83
2024/02/04 03:40:19;;;;;;;1.20;1.10;;;;;;;5.75;100.00;98362.97;5043771;28;20457;-83
2024/02/04 03:42:45;;;;;;;1.20;1.20;;;;;;;5.76;100.00;98373.28;5041896;28;20494;-79
2024/02/04 03:45:11;;;;;;;1.30;1.20;;;;;;;5.76;100.00;98383.81;5041619;28;20399;-80
2024/02/04 03:47:37;;;;;;;1.20;1.10;;;;;;;5.80;100.00;98371.06;5040250;28;20399;-81
2024/02/04 03:50:06;;;;;;;1.38;1.27;;;;;;;5.78;100.00;98373.09;5042227;28;20399;-81
2024/02/04 03:52:32;;;;;;;1.20;1.20;;;;;;;5.78;100.00;98376.53;5040274;28;20703;-81
2024/02/04 03:54:59;;;;;;;1.10;1.10;;;;;;;5.79;100.00;98378.13;5039602;28;20431;-81
2024/02/04 03:57:25;;;;;;;1.27;1.17;;;;;;;5.80;100.00;98371.88;5040970;28;20407;-81
2024/02/04 03:59:51;;;;;;;1.50;1.40;;;;;;;5.75;100.00;98352.47;5040913;28;20461;-84
2024/02/04 04:02:17;;;;;;;1.40;1.30;;;;;;;5.72;100.00;98352.84;5041337;28;20395;-83
2024/02/04 04:04:47;;;;;;;1.77;1.40;;;;;;;5.71;100.00;98357.28;5041209;28;20507;-84
2024/02/04 04:07:14;;;;;;;1.40;1.30;;;;;;;5.72;100.00;98363.34;5041775;28;20957;-81
2024/02/04 04:09:40;;;;;;;1.50;1.40;;;;;;;5.75;100.00;98360.34;5041968;28;20434;-83
2024/02/04 04:12:07;;;;;;;1.58;1.48;;;;;;;5.70;100.00;98365.38;5040249;28;20458;-84
2024/02/04 04:14:33;;;;;;;1.42;1.33;;;;;;;5.76;100.00;98372.47;5042358;28;20896;-83
2024/02/04 04:16:59;;;;;;;1.38;1.27;;;;;;;5.77;100.00;98377.53;5039701;28;20847;-82
2024/02/04 04:19:25;;;;;;;1.48;1.27;;;;;;;5.75;100.00;98395.31;5040946;28;20419;-83
2024/02/04 04:21:51;;;;;;;1.20;1.20;;;;;;;5.76;100.00;98373.28;5040733;28;20395;-83
2024/02/04 04:24:21;;;;;;;1.30;1.20;;;;;;;5.79;100.00;98375.50;5040247;28;20453;-83
2024/02/04 04:26:48;;;;;;;1.25;1.25;;;;;;;5.83;100.00;98384.63;5040068;28;20402;-83
2024/02/04 04:29:14;;;;;;;1.25;1.23;;;;;;;5.83;100.00;98379.38;5040595;28;20399;-83
2024/02/04 04:31:40;;;;;;;1.20;1.20;;;;;;;5.82;100.00;98376.94;5041124;28;20490;-83
2024/02/04 04:34:06;;;;;;;1.10;1.10;;;;;;;5.81;100.00;98372.69;5040037;28;20437;-83
2024/02/04 04:36:32;;;;;;;1.20;1.20;;;;;;;5.81;100.00;98385.84;5050309;28;20391;-82
2024/02/04 04:38:58;;;;;;;1.33;1.30;;;;;;;5.75;100.00;98386.63;5037631;28;20391;-82
2024/02/04 04:41:26;;;;;;;1.10;1.10;;;;;;;5.76;100.00;98388.25;5037633;28;20459;-82
2024/02/04 04:43:52;;;;;;;1.20;1.20;;;;;;;5.71;100.00;98396.69;5037507;28;20894;-83
2024/02/04 04:46:18;;;;;;;1.20;1.10;;;;;;;5.70;100.00;98394.28;5038245;28;20960;-82
2024/02/04 04:48:44;;;;;;;1.20;1.20;;;;;;;5.67;100.00;98394.66;5037881;28;20760;-83
2024/02/04 04:51:11;;;;;;;1.10;1.10;;;;;;;5.62;100.00;98397.88;5037934;28;20407;-82
2024/02/04 04:53:38;;;;;;;1.63;1.00;;;;;;;5.59;100.00;98402.69;5038336;28;20815;-82
2024/02/04 04:56:05;;;;;;;1.15;1.10;;;;;;;5.57;100.00;98397.63;5038247;28;20880;-81
2024/02/04 04:58:32;;;;;;;1.20;1.20;;;;;;;5.58;100.00;98404.50;5036994;28;20899;-82
2024/02/04 05:00:58;;;;;;;1.17;1.17;;;;;;;5.60;100.00;98388.56;5038151;28;20414;-83
2024/02/04 05:03:25;;;;;;;1.30;1.30;;;;;;;5.60;100.00;98391.19;5038306;28;20400;-82
2024/02/04 05:05:51;;;;;;;1.30;1.20;;;;;;;5.63;100.00;98396.06;5037615;28;20414;-82
2024/02/04 05:08:17;;;;;;;1.10;1.10;;;;;;;5.63;100.00;98398.69;5038866;28;20411;-83
2024/02/04 05:10:43;;;;;;;1.40;1.30;;;;;;;5.63;100.00;98391.63;5039273;28;20746;-83
2024/02/04 05:13:09;;;;;;;1.10;1.10;;;;;;;5.63;100.00;98389.00;5039127;28;20772;-83
2024/02/04 05:15:37;;;;;;;1.20;1.20;;;;;;;5.68;100.00;98399.72;5039078;28;20399;-80
2024/02/04 05:18:04;;;;;;;1.40;1.30;;;;;;;5.69;100.00;98396.09;5038429;28;20718;-81
2024/02/04 05:20:31;;;;;;;1.25;1.20;;;;;;;5.71;100.00;98404.56;5039754;28;20753;-83
2024/02/04 05:22:57;;;;;;;1.40;1.30;;;;;;;5.73;100.00;98399.94;5039662;28;20456;-83
2024/02/04 05:25:23;;;;;;;1.10;1.10;;;;;;;5.75;100.00;98400.56;5039175;28;20395;-83
2024/02/04 05:27:50;;;;;;;1.30;1.20;;;;;;;5.80;100.00;98405.22;5051117;28;20468;-82
2024/02/04 05:30:16;;;;;;;1.30;1.20;;;;;;;5.76;100.00;98402.19;5050008;28;20411;-83
2024/02/04 05:32:44;;;;;;;1.10;1.10;;;;;;;5.79;100.00;98393.91;5040476;28;20418;-83
2024/02/04 05:35:11;;;;;;;1.10;1.10;;;;;;;5.77;100.00;98390.69;5041024;28;20395;-83
2024/02/04 05:37:37;;;;;;;1.10;1.10;;;;;;;5.81;100.00;98388.47;5040842;28;20394;-81
2024/02/04 05:40:04;;;;;;;1.05;1.00;;;;;;;5.82;100.00;98384.81;5037241;28;20398;-84
2024/02/04 05:42:31;;;;;;;1.10;1.10;;;;;;;5.78;100.00;98380.97;5037102;28;20458;-82
2024/02/04 05:44:58;;;;;;;1.10;1.10;;;;;;;5.82;100.00;98393.53;5036892;28;20399;-81
2024/02/04 05:47:24;;;;;;;1.10;1.10;;;;;;;5.86;100.00;98401.03;5036891;28;20794;-83
2024/02/04 05:49:51;;;;;;;1.00;1.00;;;;;;;5.87;100.00;98403.44;5036342;28;20478;-81
2024/02/04 05:52:17;;;;;;;1.00;1.00;;;;;;;5.87;100.00;98406.06;5036590;28;20418;-80
2024/02/04 05:54:44;;;;;;;1.00;1.00;;;;;;;5.86;100.00;98407.09;5036896;28;20399;-82
2024/02/04 05:57:11;;;;;;;1.00;1.00;;;;;;;5.87;100.00;98413.94;5036326;28;20406;-83
2024/02/04 05:59:38;;;;;;;1.08;1.08;;;;;;;5.87;100.00;98413.94;5038002;28;20403;-81
2024/02/04 06:02:05;;;;;;;1.30;1.20;;;;;;;5.78;100.00;98413.31;5040422;28;20795;-83
2024/02/04 06:04:31;;;;;;;1.00;1.00;;;;;;;5.82;100.00;98417.16;5042049;28;20399;-82
2024/02/04 06:06:59;;;;;;;1.08;1.08;;;;;;;5.82;100.00;98411.91;5040298;28;20407;-83
2024/02/04 06:09:25;;;;;;;2.10;1.10;;;;;;;5.80;100.00;98407.84;5040707;28;20395;-82
2024/02/04 06:11:51;;;;;;;1.30;1.30;;;;;;;5.79;100.00;98406.22;5040334;28;20434;-83
2024/02/04 06:14:17;;;;;;;1.00;1.00;;;;;;;5.86;100.00;98408.91;5038357;28;20797;-83
2024/02/04 06:16:44;;;;;;;1.10;1.10;;;;;;;5.88;100.00;98418.22;5044382;28;20475;-83
2024/02/04 06:19:12;;;;;;;1.00;1.00;;;;;;;5.88;100.00;98417.41;5044539;28;20443;-83
2024/02/04 06:21:39;;;;;;;1.27;1.20;;;;;;;5.86;100.00;98409.72;5037715;28;20399;-83
2024/02/04 06:24:07;;;;;;;1.00;1.00;;;;;;;5.89;100.00;98411.16;5038424;28;20403;-82
2024/02/04 06:26:33;;;;;;;1.10;1.00;;;;;;;5.91;100.00;98411.78;5037747;28;20422;-83
2024/02/04 06:28:59;;;;;;;1.00;1.00;;;;;;;5.94;100.00;98416.66;5039856;28;20857;-82
2024/02/04 06:31:25;;;;;;;1.00;1.00;;;;;;;5.86;100.00;98411.53;5039443;28;20403;-82
2024/02/04 06:33:51;;;;;;;1.00;1.00;;;;;;;5.94;100.00;98409.56;5039679;28;20427;-80
2024/02/04 06:36:18;;;;;;;1.13;1.08;;;;;;;5.91;100.00;98407.34;5039681;28;20886;-81
2024/02/04 06:38:44;;;;;;;1.17;1.10;;;;;;;6.00;100.00;98414.06;5039696;28;20435;-82
2024/02/04 06:41:11;;;;;;;1.00;1.00;;;;;;;5.99;100.00;98415.06;5042037;28;20474;-81
2024/02/04 06:43:38;;;;;;;1.08;1.08;;;;;;;5.94;100.00;98420.06;5039602;28;20837;-82
2024/02/04 06:46:04;;;;;;;1.05;1.05;;;;;;;5.90;100.00;98420.66;5039780;28;20400;-82
2024/02/04 06:48:31;;;;;;;1.10;1.10;;;;;;;5.86;100.00;98438.63;5040719;28;20414;-82
2024/02/04 06:50:57;;;;;;;1.13;1.13;;;;;;;5.81;100.00;98441.81;5041201;28;20398;-83
2024/02/04 06:53:23;;;;;;;1.00;1.00;;;;;;;5.81;100.00;98431.31;5041178;28;20441;-81
2024/02/04 06:55:49;;;;;;;1.02;1.02;;;;;;;5.79;100.00;98435.94;5040812;28;20470;-82
2024/02/04 06:58:16;;;;;;;1.10;1.10;;;;;;;5.74;100.00;98442.78;5043251;28;20407;-83
2024/02/04 07:00:42;;;;;;;1.10;1.10;;;;;;;5.73;100.00;98443.78;5039761;28;20406;-81
2024/02/04 07:03:09;;;;;;;1.10;1.10;;;;;;;5.71;100.00;98446.59;5041790;28;20497;-82
2024/02/04 07:05:36;;;;;;;1.40;1.10;;;;;;;5.64;100.00;98435.25;5044944;28;20395;-82
2024/02/04 07:08:02;;;;;;;1.10;1.10;;;;;;;5.60;100.00;98431.41;5041341;28;20471;-83
2024/02/04 07:10:28;;;;;;;1.10;1.10;;;;;;;5.59;100.00;98408.75;5048372;28;20488;-81
2024/02/04 07:12:54;;;;;;;1.10;1.10;;;;;;;5.55;100.00;98409.34;5044761;28;20423;-82
2024/02/04 07:15:22;;;;;;;1.00;1.00;;;;;;;5.54;100.00;98400.66;5043256;28;20884;-83
2024/02/04 07:17:48;;;;;;;1.10;1.10;;;;;;;5.57;100.00;98409.94;5042056;28;20407;-81
2024/02/04 07:20:14;;;;;;;1.30;1.30;;;;;;;5.60;100.00;98413.00;5043147;28;20391;-82
2024/02/04 07:22:40;;;;;;;1.10;1.10;;;;;;;5.56;100.00;98417.03;5040598;28;20403;-82
2024/02/04 07:25:07;;;;;;;1.10;1.10;;;;;;;5.58;100.00;98406.31;5038976;28;20777;-82
2024/02/04 07:27:33;;;;;;;1.10;1.10;;;;;;;5.56;100.00;98396.03;5042316;28;20403;-81
2024/02/04 07:30:00;;;;;;;1.20;1.20;;;;;;;5.60;100.00;98401.69;5041263;28;20403;-80
2024/02/04 07:32:27;;;;;;;1.10;1.10;;;;;;;5.60;100.00;98402.50;5043171;28;20431;-83
2024/02/04 07:34:53;;;;;;;1.10;1.10;;;;;;;5.57;100.00;98404.69;5049255;28;20406;-80
2024/02/04 07:37:19;;;;;;;1.10;1.10;;;;;;;5.62;100.00;98405.75;5043391;28;20399;-78
2024/02/04 07:39:45;;;;;;;2.20;1.10;;;;;;;5.61;100.00;98409.38;5048576;28;20446;-81
2024/02/04 07:42:14;;;;;;;1.20;1.10;;;;;;;5.66;100.00;98408.78;5042388;28;20764;-82
2024/02/04 07:44:40;;;;;;;1.13;1.07;;;;;;;5.72;100.00;98426.41;5044248;28;20403;-80
2024/02/04 07:47:06;;;;;;;1.20;1.10;;;;;;;5.75;100.00;98428.66;5041441;28;20422;-81
2024/02/04 07:49:34;;;;;;;1.20;1.20;;;;;;;5.77;100.00;98424.84;5041035;28;20577;-80
2024/02/04 07:52:00;;;;;;;1.30;1.10;;;;;;;5.81;100.00;98409.47;5039923;28;20395;-82
2024/02/04 07:54:26;;;;;;;1.10;1.10;;;;;;;5.87;100.00;98406.06;5038881;28;20437;-81
2024/02/04 07:56:52;;;;;;;1.38;1.30;;;;;;;5.87;100.00;98400.81;5038372;28;20399;-83
2024/02/04 07:59:18;;;;;;;1.30;1.20;;;;;;;5.91;100.00;98396.00;5038391;28;20430;-82
2024/02/04 08:01:46;;;;;;;1.40;1.10;;;;;;;5.96;100.00;98401.47;5041629;28;20757;-82
2024/02/04 08:04:12;;;;;;;1.33;1.23;;;;;;;6.07;100.00;98387.78;5043031;28;20399;-82
2024/02/04 08:06:40;;;;;;;1.33;1.23;;;;;;;6.07;100.00;98382.53;5042456;28;20399;-83
2024/02/04 08:09:06;;;;;;;3.15;1.23;;;;;;;6.13;100.00;98379.91;5041164;28;20419;-82
2024/02/04 08:11:32;;;;;;;1.13;1.13;;;;;;;6.19;100.00;98375.69;5043305;28;20403;-81
2024/02/04 08:14:00;;;;;;;1.77;1.40;;;;;;;6.22;100.00;98378.72;5043391;28;20450;-80
2024/02/04 08:16:26;;;;;;;1.50;1.40;;;;;;;6.21;100.00;98371.84;5040791;28;20399;-83
2024/02/04 08:18:52;;;;;;;1.10;1.10;;;;;;;6.29;100.00;98388.44;5032466;28;20395;-81
2024/02/04 08:21:18;;;;;;;1.40;1.30;;;;;;;6.35;100.00;98393.72;5043173;28;20504;-82
2024/02/04 08:23:45;;;;;;;1.27;1.20;;;;;;;6.38;100.00;98403.84;5041395;28;20406;-80
2024/02/04 08:26:12;;;;;;;1.30;1.20;;;;;;;6.44;100.00;98405.69;5039641;28;20403;-80
2024/02/04 08:28:39;;;;;;;1.33;1.23;;;;;;;6.55;100.00;98405.06;5040934;28;20399;-80
2024/02/04 08:31:05;;;;;;;1.00;1.00;;;;;;;6.61;100.00;98395.59;5040144;28;20473;-78
2024/02/04 08:33:31;;;;;;;1.10;1.00;;;;;;;6.60;100.00;98400.03;5038029;28;20442;-80
2024/02/04 08:35:57;;;;;;;0.90;0.90;;;;;;;6.75;100.00;98388.53;5037491;28;20395;-78
2024/02/04 08:38:23;;;;;;;1.20;1.00;;;;;;;6.80;100.00;98393.97;5039028;28;20403;-79
2024/02/04 08:40:51;;;;;;;1.00;1.00;;;;;;;6.83;100.00;98402.28;5040292;28;20445;-80
2024/02/04 08:43:17;;;;;;;1.00;1.00;;;;;;;6.90;100.00;98400.47;5044677;28;20407;-80
2024/02/04 08:45:43;;;;;;;1.00;1.00;;;;;;;6.97;100.00;98409.19;5036997;28;20394;-78
2024/02/04 08:48:10;;;;;;;1.10;1.10;;;;;;;7.00;100.00;98413.19;5035235;28;20453;-79
2024/02/04 08:50:36;;;;;;;1.00;1.00;;;;;;;7.13;100.00;98404.50;5036354;28;20406;-79
2024/02/04 08:53:02;;;;;;;1.10;1.10;;;;;;;7.17;100.00;98403.88;5016529;28;20420;-79
2024/02/04 08:55:28;;;;;;;1.00;1.00;;;;;;;7.25;100.00;98403.69;5016390;28;20388;-79
2024/02/04 08:57:56;;;;;;;0.90;0.90;;;;;;;7.27;100.00;98390.31;5026053;28;20434;-80
2024/02/04 09:00:22;;;;;;;1.00;1.00;;;;;;;7.38;100.00;98376.50;5037464;28;20431;-81
2024/02/04 09:02:48;;;;;;;0.90;0.90;;;;;;;7.48;100.00;98378.72;5038951;28;20407;-81
2024/02/04 09:05:16;;;;;;;0.90;0.90;;;;;;;7.50;100.00;98379.31;5040034;28;20398;-80
2024/02/04 09:07:42;;;;;;;0.93;0.93;;;;;;;7.70;100.00;98380.88;5037267;28;20856;-80
2024/02/04 09:10:08;;;;;;;0.90;0.90;;;;;;;7.88;100.00;98382.84;5036589;28;20418;-80
2024/02/04 09:12:35;;;;;;;0.90;0.90;;;;;;;8.05;100.00;98377.88;5036691;28;20414;-79
2024/02/04 09:15:04;;;;;;;1.42;1.10;;;;;;;8.15;100.00;98378.25;5033970;28;20411;-78
2024/02/04 09:17:32;;;;;;;1.25;0.90;;;;;;;8.15;100.00;98371.16;5035753;28;20395;-81
2024/02/04 09:19:59;;;;;;;1.10;1.00;;;;;;;8.19;100.00;98378.66;5032948;28;20403;-80
2024/02/04 09:22:25;;;;;;;0.90;0.90;;;;;;;8.31;100.00;98383.06;5033970;28;20764;-78
2024/02/04 09:24:51;;;;;;;0.90;0.90;;;;;;;8.49;100.00;98392.91;5037820;28;20501;-81
2024/02/04 09:27:18;;;;;;;0.85;0.85;;;;;;;8.66;100.00;98399.28;5036201;28;20399;-80
2024/02/04 09:29:44;;;;;;;0.98;0.98;;;;;;;8.57;100.00;98391.84;5036495;28;20462;-81
2024/02/04 09:32:12;;;;;;;0.80;0.80;;;;;;;8.61;100.00;98391.19;5037874;28;20464;-81
2024/02/04 09:34:38;;;;;;;0.90;0.90;;;;;;;8.62;100.00;98402.56;5039408;28;20394;-81
2024/02/04 09:37:05;;;;;;;0.80;0.80;;;;;;;8.54;100.00;98396.53;5037804;28;20407;-79
2024/02/04 09:39:31;;;;;;;1.00;1.00;;;;;;;8.40;100.00;98395.00;5036193;28;20406;-81
2024/02/04 09:41:57;;;;;;;0.90;0.90;;;;;;;8.37;100.00;98389.31;5036882;28;20399;-79
2024/02/04 09:44:24;;;;;;;0.90;0.90;;;;;;;8.35;100.00;98383.44;5036661;28;20502;-82
2024/02/04 09:46:50;;;;;;;0.80;0.80;;;;;;;8.39;100.00;98387.28;5036873;28;20403;-81
2024/02/04 09:49:18;;;;;;;0.80;0.80;;;;;;;8.68;100.00;98393.78;5035926;28;20803;-79
2024/02/04 09:51:44;;;;;;;0.80;0.80;;;;;;;9.13;100.00;98402.38;5036773;28;20431;-81
2024/02/04 09:54:15;;;;;;;0.90;0.90;;;;;;;9.35;100.00;98395.66;5037252;28;20506;-82
2024/02/04 09:56:41;;;;;;;0.80;0.80;;;;;;;9.64;100.00;98384.38;5035614;28;20399;-82
2024/02/04 09:59:07;;;;;;;0.80;0.80;;;;;;;9.77;100.00;98378.16;5040648;28;20403;-81
2024/02/04 10:01:34;;;;;;;0.80;0.80;;;;;;;9.77;100.00;98366.75;5045841;28;20820;-79
2024/02/04 10:04:01;;;;;;;0.88;0.88;;;;;;;9.51;100.00;98352.81;5043455;28;20403;-84
2024/02/04 10:06:28;;;;;;;0.80;0.80;;;;;;;9.62;100.00;98338.06;5042257;28;20407;-82
2024/02/04 10:08:54;;;;;;;1.10;1.00;;;;;;;9.67;100.00;98331.06;5042013;28;20410;-83
2024/02/04 10:11:21;;;;;;;0.80;0.80;;;;;;;9.81;100.00;98329.06;5040814;28;20390;-83
2024/02/04 10:13:49;;;;;;;0.80;0.80;;;;;;;9.85;100.00;98332.09;5041454;28;20419;-81
2024/02/04 10:16:16;;;;;;;0.80;0.80;;;;;;;10.07;100.00;98328.72;5040742;28;20646;-84
2024/02/04 10:18:43;;;;;;;1.00;1.00;;;;;;;10.42;100.00;98317.47;5041588;28;20493;-83
2024/02/04 10:21:20;;;;;;;0.80;0.80;;;;;;;10.64;100.00;98301.84;5044038;28;20919;-83
2024/02/04 10:23:47;;;;;;;0.73;0.73;;;;;;;11.13;100.00;98300.56;5042542;28;20458;-82
2024/02/04 10:26:14;;;;;;;0.80;0.80;;;;;;;11.92;100.00;98289.25;5042260;28;20419;-82
2024/02/04 10:28:41;;;;;;;0.60;0.60;;;;;;;12.62;100.00;98280.91;5043378;28;20801;-83
2024/02/04 10:31:08;;;;;;;0.70;0.70;;;;;;;12.56;100.00;98271.22;5041027;28;20530;-82
2024/02/04 10:33:35;;;;;;;0.70;0.70;;;;;;;12.66;100.00;98260.75;5045167;28;20477;-84
2024/02/04 10:36:01;;;;;;;0.70;0.70;;;;;;;12.24;100.00;98278.13;5046934;28;20450;-85
2024/02/04 10:38:27;;;;;;;0.73;0.70;;;;;;;12.08;100.00;98282.38;5048198;28;20892;-83
2024/02/04 10:40:57;;;;;;;1.00;0.63;;;;;;;11.74;100.00;98273.50;5047241;28;20478;-85
2024/02/04 10:43:24;;;;;;;0.70;0.70;;;;;;;11.53;100.00;98306.75;5042731;28;20469;-83
2024/02/04 10:45:52;;;;;;;0.70;0.70;;;;;;;11.60;100.00;98323.31;5046950;28;20943;-83
2024/02/04 10:48:24;;;;;;;0.68;0.68;;;;;;;11.53;100.00;98317.34;5039125;28;20485;-82
2024/02/04 10:50:55;;;;;;;0.63;0.63;;;;;;;11.63;100.00;98314.91;5040463;28;20392;-81
2024/02/04 10:53:22;;;;;;;0.60;0.60;;;;;;;11.99;100.00;98332.34;5039637;28;20417;-81
2024/02/04 10:56:09;;;;;;;0.68;0.68;;;;;;;12.40;100.00;98333.09;5039939;28;20403;-79
2024/02/04 10:58:36;;;;;;;0.60;0.60;;;;;;;13.23;100.00;98340.28;5040055;28;20411;-77
2024/02/04 11:01:03;;;;;;;0.50;0.50;;;;;;;13.28;100.00;98327.06;5036994;28;20486;-80
2024/02/04 11:03:30;;;;;;;0.50;0.50;;;;;;;12.92;100.00;98314.28;5037984;28;20403;-82
2024/02/04 11:05:56;;;;;;;0.50;0.50;;;;;;;12.87;100.00;98308.88;5036883;28;20772;-80
2024/02/04 11:08:23;;;;;;;0.60;0.60;;;;;;;13.09;100.00;98302.56;5038974;28;20784;-81
2024/02/04 11:10:50;;;;;;;0.80;0.60;;;;;;;13.69;100.00;98283.16;5025976;28;20401;-81
2024/02/04 11:13:16;;;;;;;0.50;0.50;;;;;;;14.40;100.00;98264.47;5039525;28;20419;-80
2024/02/04 11:15:45;;;;;;;0.65;0.65;;;;;;;15.06;100.00;98271.06;5038205;28;20399;-81
2024/02/04 11:18:35;;;;;;;0.40;0.40;;;;;;;15.47;100.00;98261.41;5038461;28;20427;-82
2024/02/04 11:21:27;;;;;;;0.40;0.40;;;;;;;15.92;100.00;98267.97;5029697;28;20391;-82
2024/02/04 11:24:07;;;;;;;0.40;0.40;;;;;;;16.57;100.00;98267.25;5041128;28;20902;-81
2024/02/04 11:26:34;;;;;;;0.30;0.30;;;;;;;17.08;100.00;98265.31;5039070;28;20871;-79
2024/02/04 11:29:01;;;;;;;0.40;0.40;;;;;;;16.99;100.00;98280.31;5039549;28;20463;-83
2024/02/04 11:31:29;;;;;;;0.40;0.40;;;;;;;17.16;100.00;98272.81;5041737;28;20837;-82